Time;durP1;ratioP1;P1;durP2;ratioP2;P2;SDS_P1;SDS_P2;PMS_P1;PMS_P2;Temp;Humidity;BMP_temperature;BMP_pressure;BME280_temperature;BME280_humidity;BME280_pressure;Samples;Min_cycle;Max_cycle;Signal;HPM_P1;HPM_P2
2023/06/26 00:00:20;;;;;;;9.15;6.32;;;;;;;16.00;100.00;95883.91;1038508;28;20033;-75
2023/06/26 00:00:51;;;;;;;8.82;5.90;;;;;;;16.04;100.00;95890.19;1038611;28;20025;-76
2023/06/26 00:01:22;;;;;;;8.65;6.00;;;;;;;16.09;100.00;95890.06;1037837;28;20042;-75
2023/06/26 00:01:52;;;;;;;10.85;6.55;;;;;;;16.12;100.00;95884.19;1038682;28;20037;-75
2023/06/26 00:02:23;;;;;;;9.68;6.45;;;;;;;16.15;100.00;95890.78;1034648;28;20450;-74
2023/06/26 00:02:54;;;;;;;10.88;6.38;;;;;;;16.17;100.00;95888.63;1046965;28;20028;-74
2023/06/26 00:03:24;;;;;;;7.88;5.78;;;;;;;16.17;100.00;95886.75;1038700;28;20147;-74
2023/06/26 00:03:55;;;;;;;9.25;6.40;;;;;;;16.18;100.00;95885.66;1038878;28;20519;-74
2023/06/26 00:04:26;;;;;;;8.18;6.22;;;;;;;16.14;100.00;95882.06;1041231;28;20024;-75
2023/06/26 00:04:56;;;;;;;11.82;6.60;;;;;;;16.21;100.00;95881.66;1042774;28;20037;-75
2023/06/26 00:05:27;;;;;;;7.68;6.03;;;;;;;16.22;100.00;95880.56;1038729;28;20411;-75
2023/06/26 00:06:00;;;;;;;10.05;6.07;;;;;;;16.21;100.00;95889.59;1040282;28;20048;-75
2023/06/26 00:06:30;;;;;;;10.10;6.45;;;;;;;16.23;100.00;95885.59;1034669;28;20030;-75
2023/06/26 00:07:01;;;;;;;9.48;6.25;;;;;;;16.23;100.00;95872.34;1030450;28;20034;-75
2023/06/26 00:07:33;;;;;;;9.52;6.25;;;;;;;16.30;100.00;95877.25;1034290;28;20038;-75
2023/06/26 00:08:05;;;;;;;9.00;6.32;;;;;;;16.38;100.00;95889.00;1030414;28;20037;-75
2023/06/26 00:08:36;;;;;;;12.02;6.93;;;;;;;16.35;100.00;95884.31;1027535;28;20039;-74
2023/06/26 00:09:06;;;;;;;9.27;6.18;;;;;;;16.37;100.00;95888.22;1030988;28;20054;-75
2023/06/26 00:09:37;;;;;;;10.15;6.88;;;;;;;16.37;100.00;95887.44;1038841;28;20209;-74
2023/06/26 00:10:07;;;;;;;8.50;6.10;;;;;;;16.39;100.00;95885.28;1034391;28;20064;-74
2023/06/26 00:10:38;;;;;;;10.57;6.40;;;;;;;16.38;100.00;95883.72;1034556;28;20029;-75
2023/06/26 00:11:08;;;;;;;16.27;6.93;;;;;;;16.41;100.00;95883.13;1035635;28;20045;-75
2023/06/26 00:11:39;;;;;;;9.90;6.75;;;;;;;16.43;100.00;95888.88;1034488;28;20036;-75
2023/06/26 00:12:09;;;;;;;11.30;6.40;;;;;;;16.44;100.00;95888.59;1030517;28;20400;-75
2023/06/26 00:12:40;;;;;;;9.70;6.60;;;;;;;16.38;100.00;95873.91;1034401;28;20081;-74
2023/06/26 00:13:12;;;;;;;9.27;6.05;;;;;;;16.45;100.00;95889.38;1034454;28;20032;-75
2023/06/26 00:13:42;;;;;;;8.32;5.97;;;;;;;16.38;100.00;95878.41;1034866;28;20432;-75
2023/06/26 00:14:13;;;;;;;9.73;6.38;;;;;;;16.44;100.00;95879.88;1030664;28;20038;-74
2023/06/26 00:14:43;;;;;;;12.77;7.07;;;;;;;16.44;100.00;95893.13;1034658;28;20147;-75
2023/06/26 00:15:14;;;;;;;9.60;6.53;;;;;;;16.43;100.00;95884.41;1034682;28;20088;-75
2023/06/26 00:15:44;;;;;;;11.70;7.22;;;;;;;16.40;100.00;95882.34;1038595;28;20036;-75
2023/06/26 00:16:15;;;;;;;9.05;6.03;;;;;;;16.42;100.00;95892.63;1038828;28;20029;-75
2023/06/26 00:16:45;;;;;;;11.68;6.40;;;;;;;16.22;100.00;95870.75;1042667;28;20024;-75
2023/06/26 00:17:16;;;;;;;13.60;7.25;;;;;;;16.36;100.00;95877.91;1030482;28;20488;-75
2023/06/26 00:17:46;;;;;;;9.48;6.30;;;;;;;16.38;100.00;95889.78;1038601;28;20049;-75
2023/06/26 00:18:17;;;;;;;10.82;6.05;;;;;;;16.37;100.00;95898.03;1042687;28;20098;-75
2023/06/26 00:18:47;;;;;;;8.20;5.97;;;;;;;16.35;100.00;95894.91;1046923;28;20024;-75
2023/06/26 00:19:17;;;;;;;9.48;6.63;;;;;;;16.34;100.00;95888.03;1046688;28;20182;-75
2023/06/26 00:19:48;;;;;;;8.25;5.85;;;;;;;16.33;100.00;95886.44;1032904;28;20064;-75
2023/06/26 00:20:19;;;;;;;10.75;7.05;;;;;;;16.32;100.00;95890.97;1046233;28;20024;-75
2023/06/26 00:20:49;;;;;;;8.95;6.07;;;;;;;16.33;100.00;95891.75;1038484;28;20025;-75
2023/06/26 00:21:20;;;;;;;10.15;6.75;;;;;;;16.30;100.00;95892.31;1041961;28;20483;-75
2023/06/26 00:21:51;;;;;;;8.95;6.35;;;;;;;16.22;100.00;95880.56;1042566;28;20029;-75
2023/06/26 00:22:22;;;;;;;8.40;6.22;;;;;;;16.18;100.00;95885.66;1030666;28;20040;-75
2023/06/26 00:22:53;;;;;;;10.18;6.18;;;;;;;16.10;100.00;95873.13;1030523;28;20029;-75
2023/06/26 00:23:24;;;;;;;7.93;5.85;;;;;;;16.18;100.00;95890.97;1035566;28;20032;-74
2023/06/26 00:23:54;;;;;;;9.05;6.45;;;;;;;16.16;100.00;95892.34;1042622;28;20036;-74
2023/06/26 00:24:24;;;;;;;10.25;6.68;;;;;;;16.13;100.00;95883.13;1042661;28;20037;-75
2023/06/26 00:24:55;;;;;;;9.13;6.20;;;;;;;16.15;100.00;95893.41;1038333;28;20458;-74
2023/06/26 00:25:25;;;;;;;11.25;6.15;;;;;;;16.10;100.00;95888.22;1042571;28;20112;-75
2023/06/26 00:25:56;;;;;;;8.73;6.18;;;;;;;16.07;100.00;95886.94;1038499;28;20055;-74
2023/06/26 00:26:26;;;;;;;9.85;6.18;;;;;;;16.06;100.00;95885.38;1038654;28;20029;-74
2023/06/26 00:26:58;;;;;;;9.52;6.10;;;;;;;16.08;100.00;95888.50;1045105;28;20800;-75
2023/06/26 00:27:29;;;;;;;8.82;6.10;;;;;;;16.07;100.00;95894.91;1043151;28;20137;-74
2023/06/26 00:28:00;;;;;;;9.15;6.40;;;;;;;16.06;100.00;95893.31;1050916;28;20027;-75
2023/06/26 00:28:30;;;;;;;7.88;6.00;;;;;;;16.01;100.00;95890.78;1049359;28;20028;-74
2023/06/26 00:29:00;;;;;;;10.52;6.88;;;;;;;16.00;100.00;95892.63;1046826;28;20039;-75
2023/06/26 00:29:31;;;;;;;8.75;6.20;;;;;;;16.01;100.00;95885.47;1055323;28;20029;-74
2023/06/26 00:30:02;;;;;;;9.13;6.60;;;;;;;16.00;100.00;95889.22;1054533;28;20486;-75
2023/06/26 00:30:33;;;;;;;10.88;6.63;;;;;;;15.97;100.00;95887.94;1050481;28;20157;-74
2023/06/26 00:31:03;;;;;;;9.63;6.05;;;;;;;16.02;100.00;95887.81;1041830;28;20103;-75
2023/06/26 00:31:35;;;;;;;10.95;7.00;;;;;;;16.02;100.00;95895.75;1038211;28;20040;-76
2023/06/26 00:32:06;;;;;;;9.20;6.30;;;;;;;15.97;100.00;95885.28;1041537;28;20052;-75
2023/06/26 00:32:36;;;;;;;8.40;6.38;;;;;;;16.00;100.00;95894.50;1034886;28;20010;-74
2023/06/26 00:33:07;;;;;;;10.07;6.57;;;;;;;15.99;100.00;95898.22;1038426;28;20483;-75
2023/06/26 00:33:37;;;;;;;9.20;6.05;;;;;;;15.99;100.00;95890.25;1034259;28;20026;-75
2023/06/26 00:34:08;;;;;;;8.68;6.57;;;;;;;15.98;100.00;95888.69;1038577;28;20022;-74
2023/06/26 00:34:38;;;;;;;8.13;5.72;;;;;;;15.98;100.00;95888.69;1042511;28;20474;-75
2023/06/26 00:35:09;;;;;;;8.73;6.53;;;;;;;15.87;100.00;95866.16;1042548;28;20120;-73
2023/06/26 00:35:39;;;;;;;9.15;6.35;;;;;;;16.00;100.00;95891.84;1036701;28;20032;-74
2023/06/26 00:36:09;;;;;;;11.18;7.15;;;;;;;16.00;100.00;95882.03;1030418;28;20288;-75
2023/06/26 00:36:43;;;;;;;10.15;6.78;;;;;;;16.00;100.00;95879.41;1042515;28;20028;-74
2023/06/26 00:37:13;;;;;;;10.15;6.30;;;;;;;16.08;100.00;95885.88;1037150;28;20558;-75
2023/06/26 00:37:44;;;;;;;11.05;6.65;;;;;;;16.06;100.00;95876.66;1038444;28;20486;-74
2023/06/26 00:38:15;;;;;;;11.23;6.65;;;;;;;16.06;100.00;95876.66;1038332;28;20041;-73
2023/06/26 00:38:46;;;;;;;10.05;6.32;;;;;;;16.10;100.00;95886.38;1046782;28;20460;-75
2023/06/26 00:39:16;;;;;;;10.18;6.35;;;;;;;16.11;100.00;95884.50;1050412;28;20438;-74
2023/06/26 00:39:47;;;;;;;9.50;6.75;;;;;;;16.06;100.00;95880.06;1047138;28;20070;-75
2023/06/26 00:40:17;;;;;;;10.10;6.85;;;;;;;16.09;100.00;95882.13;1046338;28;20028;-76
2023/06/26 00:40:48;;;;;;;12.55;6.60;;;;;;;16.08;100.00;95882.44;1046870;28;20478;-75
2023/06/26 00:41:19;;;;;;;9.68;6.07;;;;;;;16.10;100.00;95883.72;1041809;28;20110;-75
2023/06/26 00:41:49;;;;;;;10.63;6.35;;;;;;;16.10;100.00;95885.59;1038903;28;20534;-75
2023/06/26 00:42:20;;;;;;;9.50;6.10;;;;;;;16.09;100.00;95884.00;1045385;28;20052;-75
2023/06/26 00:42:50;;;;;;;8.95;6.50;;;;;;;16.08;100.00;95891.16;1034496;28;20092;-74
2023/06/26 00:43:21;;;;;;;9.73;6.32;;;;;;;16.08;100.00;95885.09;1034295;28;20029;-74
2023/06/26 00:43:51;;;;;;;9.30;6.30;;;;;;;16.07;100.00;95889.59;1044178;28;20395;-75
2023/06/26 00:44:22;;;;;;;9.82;6.80;;;;;;;16.07;100.00;95889.59;1038380;28;20026;-74
2023/06/26 00:44:52;;;;;;;9.43;6.50;;;;;;;16.10;100.00;95885.59;1038474;28;20025;-75
2023/06/26 00:45:23;;;;;;;9.63;6.68;;;;;;;16.03;100.00;95875.38;1038444;28;20034;-74
2023/06/26 00:45:53;;;;;;;10.48;6.78;;;;;;;16.10;100.00;95883.72;1042648;28;20040;-77
2023/06/26 00:46:24;;;;;;;11.10;6.05;;;;;;;16.02;100.00;95879.09;1046749;28;20066;-74
2023/06/26 00:46:55;;;;;;;10.23;6.80;;;;;;;16.03;100.00;95875.38;1046737;28;20482;-73
2023/06/26 00:47:25;;;;;;;9.50;6.60;;;;;;;16.09;100.00;95887.44;1042552;28;20656;-74
2023/06/26 00:47:56;;;;;;;10.38;6.07;;;;;;;16.06;100.00;95877.41;1042357;28;20040;-75
2023/06/26 00:48:26;;;;;;;8.38;6.43;;;;;;;16.12;100.00;95878.91;1042718;28;20056;-75
2023/06/26 00:48:58;;;;;;;10.93;6.35;;;;;;;16.07;100.00;95873.72;1039938;28;20031;-74
2023/06/26 00:49:28;;;;;;;17.13;6.50;;;;;;;16.07;100.00;95884.31;1030491;28;20034;-75
2023/06/26 00:49:59;;;;;;;11.25;6.70;;;;;;;16.12;100.00;95886.06;1034641;28;20037;-74
2023/06/26 00:50:29;;;;;;;8.82;5.95;;;;;;;16.07;100.00;95884.31;1026503;28;20437;-75
2023/06/26 00:51:00;;;;;;;10.20;6.55;;;;;;;16.10;100.00;95886.38;1038074;28;20029;-74
2023/06/26 00:51:30;;;;;;;10.00;6.93;;;;;;;16.11;100.00;95885.28;1046664;28;20029;-74
2023/06/26 00:52:03;;;;;;;8.73;6.40;;;;;;;16.08;100.00;95877.16;1034314;28;20030;-75
2023/06/26 00:52:33;;;;;;;8.60;6.35;;;;;;;16.12;100.00;95873.59;1034310;28;20449;-75
2023/06/26 00:53:04;;;;;;;9.27;6.30;;;;;;;16.17;100.00;95884.13;1042709;28;20029;-75
2023/06/26 00:53:34;;;;;;;10.63;7.30;;;;;;;16.13;100.00;95877.84;1038452;28;20490;-74
2023/06/26 00:54:05;;;;;;;10.65;6.80;;;;;;;16.18;100.00;95879.59;1027890;28;20436;-74
2023/06/26 00:54:35;;;;;;;11.75;6.82;;;;;;;16.20;100.00;95877.44;1042471;28;20032;-75
2023/06/26 00:55:06;;;;;;;10.18;7.13;;;;;;;16.24;100.00;95884.50;1042679;28;20033;-75
2023/06/26 00:55:36;;;;;;;11.20;7.18;;;;;;;16.29;100.00;95880.19;1037860;28;20124;-74
2023/06/26 00:56:07;;;;;;;9.63;6.93;;;;;;;16.26;100.00;95876.25;1034466;28;20034;-74
2023/06/26 00:56:37;;;;;;;12.10;6.90;;;;;;;16.24;100.00;95879.22;1038472;28;20014;-75
2023/06/26 00:57:08;;;;;;;11.20;7.20;;;;;;;16.31;100.00;95872.72;1030410;28;20053;-75
2023/06/26 00:57:38;;;;;;;10.52;7.05;;;;;;;16.38;100.00;95881.84;1030174;28;20452;-74
2023/06/26 00:58:09;;;;;;;11.27;7.05;;;;;;;16.41;100.00;95883.13;1038573;28;20021;-75
2023/06/26 00:58:39;;;;;;;12.70;7.38;;;;;;;16.43;100.00;95889.69;1034413;28;20026;-75
2023/06/26 00:59:09;;;;;;;10.35;6.45;;;;;;;16.44;100.00;95879.88;1035936;28;20475;-74
2023/06/26 00:59:40;;;;;;;8.82;6.63;;;;;;;16.44;100.00;95878.00;1046792;28;20052;-74
2023/06/26 01:00:11;;;;;;;11.18;6.85;;;;;;;16.46;100.00;95875.06;1046608;28;20020;-75
2023/06/26 01:00:45;;;;;;;12.25;7.50;;;;;;;16.49;100.00;95882.41;1034244;28;20026;-75
2023/06/26 01:01:17;;;;;;;12.95;7.18;;;;;;;16.52;100.00;95883.69;1037709;28;20045;-75
2023/06/26 01:01:48;;;;;;;10.13;6.32;;;;;;;16.59;100.00;95882.19;1038611;28;20094;-74
2023/06/26 01:02:19;;;;;;;10.48;6.72;;;;;;;16.56;100.00;95882.78;1040820;28;20030;-75
2023/06/26 01:02:50;;;;;;;9.90;7.18;;;;;;;16.57;100.00;95878.31;1046259;28;20009;-74
2023/06/26 01:03:22;;;;;;;11.55;6.82;;;;;;;16.54;100.00;95877.03;1043135;28;20498;-75
2023/06/26 01:03:53;;;;;;;10.07;7.32;;;;;;;16.50;100.00;95879.50;1051056;28;20024;-74
2023/06/26 01:04:27;;;;;;;10.07;6.35;;;;;;;16.57;100.00;95881.72;1041089;28;20613;-75
2023/06/26 01:04:57;;;;;;;11.57;7.10;;;;;;;16.56;100.00;95869.56;1046701;28;20032;-75
2023/06/26 01:05:28;;;;;;;10.00;7.10;;;;;;;16.58;100.00;95880.66;1046179;28;20029;-75
2023/06/26 01:05:58;;;;;;;10.02;6.95;;;;;;;16.60;100.00;95872.38;1042911;28;20024;-74
2023/06/26 01:06:31;;;;;;;9.75;6.70;;;;;;;16.60;100.00;95873.19;1042666;28;20036;-75
2023/06/26 01:07:01;;;;;;;11.52;6.93;;;;;;;16.62;100.00;95876.31;1046843;28;20104;-75
2023/06/26 01:07:36;;;;;;;11.98;7.05;;;;;;;16.56;100.00;95869.56;1038086;28;20037;-75
2023/06/26 01:08:06;;;;;;;11.10;6.95;;;;;;;16.55;100.00;95868.00;1030416;28;20026;-75
2023/06/26 01:08:37;;;;;;;7.88;5.97;;;;;;;16.54;100.00;95871.72;1030262;28;20045;-74
2023/06/26 01:09:08;;;;;;;10.73;6.47;;;;;;;16.56;100.00;95874.84;1030442;28;20023;-74
2023/06/26 01:09:38;;;;;;;8.68;6.22;;;;;;;16.54;100.00;95877.03;1030241;28;20030;-75
2023/06/26 01:10:09;;;;;;;11.43;7.07;;;;;;;16.53;100.00;95875.44;1042621;28;20075;-75
2023/06/26 01:10:39;;;;;;;9.63;6.50;;;;;;;16.49;100.00;95869.16;1038382;28;20033;-74
2023/06/26 01:11:09;;;;;;;10.40;6.88;;;;;;;16.48;100.00;95865.75;1040165;28;20022;-74
2023/06/26 01:11:40;;;;;;;11.15;7.07;;;;;;;16.52;100.00;95873.88;1038387;28;20450;-76
2023/06/26 01:12:10;;;;;;;13.02;7.60;;;;;;;16.52;100.00;95873.88;1034526;28;20057;-75
2023/06/26 01:12:41;;;;;;;10.27;6.78;;;;;;;16.47;100.00;95872.13;1039103;28;20565;-75
2023/06/26 01:13:12;;;;;;;9.85;6.55;;;;;;;16.46;100.00;95865.28;1034373;28;20026;-74
2023/06/26 01:13:46;;;;;;;11.68;6.88;;;;;;;16.43;100.00;95859.75;1042412;28;20025;-74
2023/06/26 01:14:16;;;;;;;10.82;7.30;;;;;;;16.49;100.00;95863.88;1042272;28;20079;-74
2023/06/26 01:14:47;;;;;;;10.30;6.72;;;;;;;16.51;100.00;95867.03;1034327;28;20135;-75
2023/06/26 01:15:17;;;;;;;9.43;6.80;;;;;;;16.54;100.00;95877.03;1038407;28;20585;-75
2023/06/26 01:15:48;;;;;;;10.55;6.70;;;;;;;16.52;100.00;95873.88;1038417;28;20535;-75
2023/06/26 01:16:19;;;;;;;10.68;6.65;;;;;;;16.53;100.00;95875.44;1036724;28;20046;-74
2023/06/26 01:16:49;;;;;;;10.02;6.70;;;;;;;16.43;100.00;95859.75;1038319;28;20080;-75
2023/06/26 01:17:20;;;;;;;11.05;6.85;;;;;;;16.46;100.00;95865.28;1042462;28;20081;-74
2023/06/26 01:17:50;;;;;;;9.43;6.90;;;;;;;16.49;100.00;95869.94;1042398;28;20580;-74
2023/06/26 01:18:21;;;;;;;11.40;7.05;;;;;;;16.45;100.00;95868.19;1040054;28;20021;-74
2023/06/26 01:18:52;;;;;;;10.65;6.15;;;;;;;16.54;100.00;95870.94;1030268;28;20023;-74
2023/06/26 01:19:28;;;;;;;9.90;6.93;;;;;;;16.47;100.00;95861.53;1030362;28;20089;-75
2023/06/26 01:19:59;;;;;;;10.70;7.18;;;;;;;16.50;100.00;95857.50;1036231;28;20108;-76
2023/06/26 01:20:41;;;;;;;9.35;6.63;;;;;;;16.55;100.00;95868.00;1038592;28;20021;-73
2023/06/26 01:21:11;;;;;;;11.55;7.05;;;;;;;16.54;100.00;95871.72;1033609;28;20033;-75
2023/06/26 01:21:43;;;;;;;8.95;6.90;;;;;;;16.55;100.00;95869.84;1039425;28;20033;-74
2023/06/26 01:22:29;;;;;;;10.27;6.85;;;;;;;16.52;100.00;95868.59;1046603;28;20498;-75
2023/06/26 01:23:16;;;;;;;10.80;6.95;;;;;;;16.49;100.00;95869.94;1034118;28;20029;-74
2023/06/26 01:23:56;;;;;;;15.35;6.68;;;;;;;16.45;100.00;95873.50;1031332;28;20084;-75
2023/06/26 01:24:32;;;;;;;9.73;6.78;;;;;;;16.48;100.00;95872.91;1039257;28;20458;-74
2023/06/26 01:25:18;;;;;;;11.35;7.00;;;;;;;16.45;100.00;95868.19;1038138;28;20601;-75
2023/06/26 01:26:21;;;;;;;9.05;6.10;;;;;;;16.44;100.00;95871.94;1046805;28;20107;-75
2023/06/26 01:26:51;;;;;;;10.00;6.53;;;;;;;16.38;100.00;95857.22;1043353;28;20065;-75
2023/06/26 01:27:22;;;;;;;10.50;6.82;;;;;;;16.42;100.00;95866.16;1042016;28;20021;-74
2023/06/26 01:27:52;;;;;;;9.30;6.50;;;;;;;16.42;100.00;95860.84;1038398;28;20033;-75
2023/06/26 01:28:23;;;;;;;11.32;7.10;;;;;;;16.43;100.00;95865.06;1042554;28;20060;-75
2023/06/26 01:28:54;;;;;;;12.10;6.93;;;;;;;16.37;100.00;95860.97;1034287;28;20029;-74
2023/06/26 01:29:25;;;;;;;9.13;6.40;;;;;;;16.35;100.00;95857.81;1042361;28;20025;-74
2023/06/26 01:29:56;;;;;;;10.23;6.82;;;;;;;16.32;100.00;95853.09;1042579;28;20023;-74
2023/06/26 01:30:26;;;;;;;9.80;6.40;;;;;;;16.35;100.00;95863.13;1035301;28;20041;-74
2023/06/26 01:30:56;;;;;;;9.90;6.68;;;;;;;16.26;100.00;95855.88;1030155;28;20081;-73
2023/06/26 01:31:27;;;;;;;9.93;6.68;;;;;;;16.24;100.00;95858.03;1033767;28;20435;-75
2023/06/26 01:31:58;;;;;;;10.10;6.40;;;;;;;16.25;100.00;95858.81;1039924;28;20495;-75
2023/06/26 01:32:29;;;;;;;9.10;6.35;;;;;;;16.26;100.00;95855.06;1038672;28;20057;-75
2023/06/26 01:33:00;;;;;;;9.70;6.97;;;;;;;16.25;100.00;95858.81;1030523;28;20045;-74
2023/06/26 01:33:30;;;;;;;8.10;6.07;;;;;;;16.18;100.00;95845.97;1034368;28;20643;-74
2023/06/26 01:34:01;;;;;;;10.27;6.95;;;;;;;16.16;100.00;95849.97;1030206;28;20037;-75
2023/06/26 01:34:31;;;;;;;8.48;5.63;;;;;;;16.15;100.00;95848.41;1034408;28;20022;-74
2023/06/26 01:35:02;;;;;;;8.35;5.82;;;;;;;16.18;100.00;95853.91;1042426;28;20028;-74
2023/06/26 01:35:32;;;;;;;9.00;6.20;;;;;;;16.17;100.00;95851.56;1029934;28;20742;-75
2023/06/26 01:36:03;;;;;;;10.32;6.70;;;;;;;16.13;100.00;95851.38;1034152;28;20478;-75
2023/06/26 01:36:34;;;;;;;10.20;6.60;;;;;;;16.15;100.00;95857.13;1038324;28;20059;-73
2023/06/26 01:37:04;;;;;;;9.65;6.63;;;;;;;16.13;100.00;95850.56;1038244;28;20033;-75
2023/06/26 01:37:35;;;;;;;8.55;6.05;;;;;;;16.12;100.00;95854.28;1034128;28;20026;-75
2023/06/26 01:38:31;;;;;;;10.27;6.55;;;;;;;16.09;100.00;95855.66;1034220;28;20034;-75
2023/06/26 01:39:01;;;;;;;11.93;6.60;;;;;;;16.02;100.00;95849.97;1036944;28;20403;-75
2023/06/26 01:39:32;;;;;;;10.80;6.30;;;;;;;16.03;100.00;95855.00;1037565;28;20097;-75
2023/06/26 01:40:05;;;;;;;14.60;7.45;;;;;;;16.00;100.00;95854.81;1041951;28;20522;-74
2023/06/26 01:40:35;;;;;;;8.50;6.20;;;;;;;15.90;100.00;95842.53;1042302;28;20025;-75
2023/06/26 01:41:06;;;;;;;8.63;6.18;;;;;;;15.91;100.00;95854.69;1033798;28;20022;-75
2023/06/26 01:41:36;;;;;;;9.43;7.07;;;;;;;15.90;100.00;95852.34;1034302;28;20030;-75
2023/06/26 01:42:07;;;;;;;8.52;6.18;;;;;;;15.87;100.00;95861.66;1034077;28;20026;-75
2023/06/26 01:42:38;;;;;;;9.38;6.75;;;;;;;15.77;100.00;95846.75;1042434;28;20029;-75
2023/06/26 01:43:15;;;;;;;9.88;6.60;;;;;;;15.75;100.00;95854.16;1042611;28;20028;-75
2023/06/26 01:43:51;;;;;;;9.35;6.18;;;;;;;15.77;100.00;95857.31;1036072;28;20544;-74
2023/06/26 01:44:34;;;;;;;9.50;6.55;;;;;;;15.68;100.00;95856.41;1040740;28;20534;-75
2023/06/26 01:45:14;;;;;;;9.20;6.43;;;;;;;15.68;100.00;95867.00;1033792;28;20052;-74
2023/06/26 01:45:46;;;;;;;11.73;6.78;;;;;;;15.63;100.00;95859.13;1042373;28;20029;-75
2023/06/26 01:46:22;;;;;;;9.93;6.30;;;;;;;15.67;100.00;95865.44;1034173;28;20065;-74
2023/06/26 01:47:00;;;;;;;9.82;6.45;;;;;;;15.58;100.00;95851.28;1039480;28;20022;-74
2023/06/26 01:47:31;;;;;;;11.85;6.53;;;;;;;15.61;100.00;95860.50;1043864;28;20033;-75
2023/06/26 01:48:01;;;;;;;9.20;6.55;;;;;;;15.54;100.00;95850.28;1046694;28;20024;-75
2023/06/26 01:48:42;;;;;;;10.52;6.50;;;;;;;15.55;100.00;95862.44;1046769;28;20027;-75
2023/06/26 01:49:33;;;;;;;10.07;6.00;;;;;;;15.50;100.00;95859.91;1034752;28;20022;-75
2023/06/26 01:50:07;;;;;;;;;;;;;;;15.47;100.00;95855.97;1035004;28;20010;-75
2023/06/26 01:50:37;;;;;;;10.13;6.20;;;;;;;15.42;100.00;95853.38;1034284;28;19953;-74
2023/06/26 01:51:07;;;;;;;9.82;6.60;;;;;;;15.39;100.00;95855.84;1041044;28;20478;-75
2023/06/26 01:51:41;;;;;;;9.32;6.25;;;;;;;15.36;100.00;95859.84;1038243;28;20382;-74
2023/06/26 01:52:20;;;;;;;9.45;6.30;;;;;;;15.32;100.00;95851.72;1038206;28;20832;-74
2023/06/26 01:53:08;;;;;;;9.30;5.88;;;;;;;15.33;100.00;95863.88;1038563;28;20541;-74
2023/06/26 01:53:39;;;;;;;14.38;6.65;;;;;;;15.32;100.00;95864.94;1038380;28;20029;-75
2023/06/26 01:54:10;;;;;;;9.23;6.28;;;;;;;15.30;100.00;95856.50;1042500;28;20025;-75
2023/06/26 01:55:20;;;;;;;10.75;6.45;;;;;;;15.23;100.00;95856.09;1038435;28;20030;-74
2023/06/26 01:55:55;;;;;;;10.88;6.28;;;;;;;15.24;100.00;95865.59;1048149;28;20019;-74
2023/06/26 01:56:25;;;;;;;41.97;8.90;;;;;;;15.22;100.00;95854.50;1036547;28;20026;-74
2023/06/26 01:56:56;;;;;;;11.85;7.15;;;;;;;15.22;100.00;95862.44;1030995;28;20037;-75
2023/06/26 01:57:27;;;;;;;11.43;6.70;;;;;;;15.16;100.00;95866.25;1039003;28;20033;-75
2023/06/26 01:57:57;;;;;;;9.07;6.35;;;;;;;15.19;100.00;95870.97;1038967;28;20022;-73
2023/06/26 01:58:27;;;;;;;10.07;6.63;;;;;;;15.14;100.00;95862.31;1030990;28;20034;-76
2023/06/26 01:58:58;;;;;;;11.32;6.95;;;;;;;15.16;100.00;95868.13;1043196;28;20391;-75
2023/06/26 01:59:28;;;;;;;10.80;6.80;;;;;;;15.15;100.00;95859.38;1047426;28;20036;-76
2023/06/26 01:59:59;;;;;;;9.27;6.47;;;;;;;15.16;100.00;95868.13;1035126;28;20635;-75
2023/06/26 02:00:29;;;;;;;10.45;6.60;;;;;;;15.15;100.00;95867.31;1034977;28;20502;-76
2023/06/26 02:01:00;;;;;;;8.48;6.38;;;;;;;14.99;100.00;95844.81;1042633;28;20020;-73
2023/06/26 02:01:32;;;;;;;8.50;6.32;;;;;;;15.14;100.00;95867.59;1043127;28;20082;-76
2023/06/26 02:02:03;;;;;;;11.50;6.65;;;;;;;15.13;100.00;95866.06;1035121;28;20331;-75
2023/06/26 02:02:34;;;;;;;13.80;7.20;;;;;;;15.11;100.00;95868.97;1034580;28;20063;-76
2023/06/26 02:03:05;;;;;;;8.80;6.35;;;;;;;15.07;100.00;95858.19;1039164;28;20386;-76
2023/06/26 02:03:36;;;;;;;13.77;6.88;;;;;;;15.11;100.00;95866.31;1038720;28;20653;-75
2023/06/26 02:04:06;;;;;;;12.75;6.85;;;;;;;15.09;100.00;95866.63;1031408;28;20022;-76
2023/06/26 02:04:37;;;;;;;9.38;6.15;;;;;;;15.09;100.00;95863.97;1041142;28;20060;-76
2023/06/26 02:05:08;;;;;;;9.20;6.20;;;;;;;15.11;100.00;95861.03;1047337;28;20033;-76
2023/06/26 02:05:39;;;;;;;8.85;5.55;;;;;;;15.07;100.00;95852.91;1047337;28;20035;-75
2023/06/26 02:06:09;;;;;;;10.82;5.80;;;;;;;15.10;100.00;95862.13;1031849;28;20030;-75
2023/06/26 02:06:40;;;;;;;8.98;6.07;;;;;;;15.11;100.00;95862.91;1026797;28;20035;-75
2023/06/26 02:07:10;;;;;;;9.52;6.38;;;;;;;15.09;100.00;95857.91;1030978;28;20388;-76
2023/06/26 02:07:41;;;;;;;8.40;6.10;;;;;;;15.13;100.00;95866.06;1036500;28;20036;-76
2023/06/26 02:08:13;;;;;;;9.27;6.68;;;;;;;15.12;100.00;95859.16;1043492;28;20017;-75
2023/06/26 02:08:44;;;;;;;10.93;6.47;;;;;;;15.18;100.00;95864.09;1043642;28;20019;-75
2023/06/26 02:09:15;;;;;;;10.10;6.70;;;;;;;15.16;100.00;95860.97;1043315;28;20075;-75
2023/06/26 02:09:46;;;;;;;10.90;6.35;;;;;;;15.17;100.00;95859.88;1046861;28;20028;-75
2023/06/26 02:10:17;;;;;;;11.77;6.75;;;;;;;15.13;100.00;95850.97;1043167;28;20509;-74
2023/06/26 02:10:47;;;;;;;10.10;6.63;;;;;;;15.00;100.00;95833.19;1035060;28;20017;-75
2023/06/26 02:11:18;;;;;;;11.80;7.20;;;;;;;15.19;100.00;95860.41;1033484;28;20041;-75
2023/06/26 02:11:48;;;;;;;9.98;6.43;;;;;;;15.18;100.00;95866.72;1043211;28;20036;-75
2023/06/26 02:12:19;;;;;;;9.90;6.15;;;;;;;15.20;100.00;95861.19;1043162;28;20616;-75
2023/06/26 02:12:49;;;;;;;11.13;7.07;;;;;;;15.15;100.00;95854.09;1045173;28;20032;-75
2023/06/26 02:13:20;;;;;;;11.77;6.35;;;;;;;15.19;100.00;95857.75;1042910;28;20036;-75
2023/06/26 02:13:50;;;;;;;8.18;5.72;;;;;;;15.19;100.00;95864.88;1043283;28;20444;-75
2023/06/26 02:14:20;;;;;;;9.95;6.68;;;;;;;15.17;100.00;95862.53;1043653;28;20044;-75
2023/06/26 02:14:51;;;;;;;11.10;6.43;;;;;;;15.18;100.00;95864.09;1043190;28;20067;-74
2023/06/26 02:15:22;;;;;;;8.98;6.03;;;;;;;15.18;100.00;95864.09;1038931;28;20372;-75
2023/06/26 02:15:52;;;;;;;8.40;5.95;;;;;;;15.13;100.00;95856.25;1043305;28;20043;-77
2023/06/26 02:16:23;;;;;;;8.82;6.65;;;;;;;15.13;100.00;95856.25;1046550;28;20020;-75
2023/06/26 02:16:53;;;;;;;8.63;6.10;;;;;;;15.21;100.00;95866.16;1043107;28;20402;-78
2023/06/26 02:17:24;;;;;;;9.30;6.63;;;;;;;15.15;100.00;95848.81;1043025;28;20167;-75
2023/06/26 02:17:54;;;;;;;8.95;6.30;;;;;;;15.19;100.00;95867.50;1036721;28;20034;-76
2023/06/26 02:18:25;;;;;;;10.73;6.22;;;;;;;15.17;100.00;95867.03;1037208;28;20061;-75
2023/06/26 02:18:57;;;;;;;9.93;6.50;;;;;;;15.14;100.00;95863.09;1047238;28;20032;-75
2023/06/26 02:19:28;;;;;;;11.27;7.07;;;;;;;15.13;100.00;95866.84;1042681;28;20029;-74
2023/06/26 02:19:58;;;;;;;9.73;6.72;;;;;;;15.04;100.00;95858.75;1047144;28;20032;-75
2023/06/26 02:20:29;;;;;;;9.88;6.85;;;;;;;15.08;100.00;95869.53;1047002;28;20032;-75
2023/06/26 02:20:59;;;;;;;9.55;6.20;;;;;;;15.02;100.00;95866.19;1039051;28;20030;-75
2023/06/26 02:21:30;;;;;;;10.27;6.07;;;;;;;15.05;100.00;95875.41;1042593;28;20569;-75
2023/06/26 02:22:00;;;;;;;10.00;6.60;;;;;;;15.02;100.00;95878.59;1047123;28;20032;-75
2023/06/26 02:22:31;;;;;;;7.90;6.30;;;;;;;14.97;100.00;95868.91;1046876;28;20086;-74
2023/06/26 02:23:01;;;;;;;9.30;6.18;;;;;;;15.02;100.00;95870.69;1042344;28;20033;-75
2023/06/26 02:23:32;;;;;;;9.85;6.20;;;;;;;14.97;100.00;95868.91;1037378;28;20022;-75
2023/06/26 02:24:02;;;;;;;9.68;6.57;;;;;;;15.00;100.00;95867.56;1039402;28;20033;-75
2023/06/26 02:24:34;;;;;;;10.50;6.55;;;;;;;14.94;100.00;95863.41;1043877;28;20598;-75
2023/06/26 02:25:05;;;;;;;8.50;6.10;;;;;;;14.97;100.00;95862.84;1043665;28;20036;-75
2023/06/26 02:25:35;;;;;;;9.55;5.97;;;;;;;15.03;100.00;95872.28;1043506;28;20067;-75
2023/06/26 02:26:06;;;;;;;9.48;6.65;;;;;;;15.04;100.00;95868.53;1038888;28;20621;-75
2023/06/26 02:26:37;;;;;;;10.82;6.90;;;;;;;15.03;100.00;95872.28;1030904;28;20465;-75
2023/06/26 02:27:07;;;;;;;16.08;6.78;;;;;;;15.04;100.00;95869.31;1031327;28;20026;-75